createdAt,value
2022-08-21T00:02:22.581Z,10.02
2022-08-21T00:04:57.361Z,10.32
2022-08-21T00:07:25.520Z,10.35
2022-08-21T00:09:53.419Z,10.45
2022-08-21T00:12:20.836Z,11.38
2022-08-21T00:14:48.086Z,10.90
2022-08-21T00:17:15.394Z,10.57
2022-08-21T00:19:42.598Z,11.32
2022-08-21T00:22:09.786Z,10.50
2022-08-21T00:24:37.330Z,11.68
2022-08-21T00:27:04.562Z,11.18
2022-08-21T00:29:31.742Z,11.57
2022-08-21T00:31:59.731Z,10.73
2022-08-21T00:34:27.345Z,10.65
2022-08-21T00:36:54.547Z,10.93
2022-08-21T00:39:21.824Z,10.00
2022-08-21T00:41:49.045Z,9.45
2022-08-21T00:44:17.157Z,9.30
2022-08-21T00:46:44.945Z,9.10
2022-08-21T00:49:13.153Z,10.35
2022-08-21T00:52:10.027Z,10.23
2022-08-21T00:54:38.443Z,10.20
2022-08-21T00:57:12.649Z,9.13
2022-08-21T00:59:40.116Z,10.88
2022-08-21T01:02:08.596Z,9.00
2022-08-21T01:04:36.465Z,11.77
2022-08-21T01:07:04.339Z,11.55
2022-08-21T01:09:31.559Z,10.38
2022-08-21T01:11:59.897Z,10.88
2022-08-21T01:14:27.224Z,9.55
2022-08-21T01:16:54.673Z,9.73
2022-08-21T01:19:22.647Z,12.38
2022-08-21T01:21:49.894Z,10.68
2022-08-21T01:24:17.246Z,12.48
2022-08-21T01:26:45.164Z,11.80
2022-08-21T01:29:38.799Z,11.68
2022-08-21T01:32:08.504Z,11.23
2022-08-21T01:34:37.962Z,12.00
2022-08-21T01:37:05.564Z,12.45
2022-08-21T01:39:32.973Z,11.57
2022-08-21T01:42:00.279Z,13.73
2022-08-21T01:44:27.841Z,11.60
2022-08-21T01:46:56.500Z,11.73
2022-08-21T01:49:23.749Z,12.23
2022-08-21T01:51:50.956Z,11.52
2022-08-21T01:54:18.525Z,12.13
2022-08-21T01:56:47.629Z,11.07
2022-08-21T01:59:14.962Z,10.88
2022-08-21T02:01:42.358Z,11.45
2022-08-21T02:04:10.499Z,9.07
2022-08-21T02:06:38.328Z,8.70
2022-08-21T02:09:06.788Z,8.23
2022-08-21T02:11:34.678Z,8.95
2022-08-21T02:14:02.079Z,8.32
2022-08-21T02:16:29.876Z,8.98
2022-08-21T02:18:57.794Z,8.02
2022-08-21T02:21:24.969Z,7.93
2022-08-21T02:23:52.285Z,8.43
2022-08-21T02:26:19.474Z,8.98
2022-08-21T02:28:46.813Z,8.60
2022-08-21T02:31:14.174Z,8.15
2022-08-21T02:33:41.507Z,8.90
2022-08-21T02:36:09.127Z,8.73
2022-08-21T02:38:40.242Z,8.10
2022-08-21T02:41:09.045Z,8.68
2022-08-21T02:43:36.708Z,8.65
2022-08-21T02:46:05.124Z,7.30
2022-08-21T02:48:33.445Z,8.43
2022-08-21T02:51:02.253Z,8.25
2022-08-21T02:53:30.526Z,9.65
2022-08-21T02:55:59.084Z,9.02
2022-08-21T02:58:27.644Z,9.65
2022-08-21T03:00:55.490Z,8.10
2022-08-21T03:03:23.607Z,9.13
2022-08-21T03:05:50.819Z,9.57
2022-08-21T03:08:18.089Z,10.35
2022-08-21T03:10:47.300Z,10.68
2022-08-21T03:13:14.739Z,10.43
2022-08-21T03:15:42.834Z,9.70
2022-08-21T03:18:10.913Z,9.93
2022-08-21T03:20:38.608Z,10.70
2022-08-21T03:23:12.717Z,9.93
2022-08-21T03:25:41.902Z,9.00
2022-08-21T03:28:13.251Z,8.90
2022-08-21T03:30:42.188Z,10.73
2022-08-21T03:33:12.156Z,10.77
2022-08-21T03:35:41.556Z,10.80
2022-08-21T03:38:08.789Z,11.57
2022-08-21T03:40:35.989Z,11.05
2022-08-21T03:43:03.242Z,11.27
2022-08-21T03:45:30.493Z,10.95
2022-08-21T03:48:02.868Z,10.73
2022-08-21T03:50:31.883Z,10.73
2022-08-21T03:52:59.403Z,9.55
2022-08-21T03:55:27.105Z,9.63
2022-08-21T03:57:54.685Z,9.88
2022-08-21T04:00:22.229Z,10.15
2022-08-21T04:02:49.796Z,10.52
2022-08-21T04:05:37.385Z,8.63
2022-08-21T04:08:05.920Z,9.30
2022-08-21T04:10:35.526Z,8.93
2022-08-21T04:13:03.223Z,8.48
2022-08-21T04:15:30.435Z,7.93
2022-08-21T04:17:57.674Z,7.90
2022-08-21T04:20:26.093Z,7.90
2022-08-21T04:22:53.637Z,6.55
2022-08-21T04:25:23.030Z,6.97
2022-08-21T04:27:50.793Z,6.78
2022-08-21T04:30:18.178Z,7.35
2022-08-21T04:32:46.334Z,7.40
2022-08-21T04:35:15.091Z,6.93
2022-08-21T04:37:42.482Z,6.55
2022-08-21T04:40:11.265Z,6.60
2022-08-21T04:43:04.935Z,6.25
2022-08-21T04:45:34.027Z,6.50
2022-08-21T04:48:02.444Z,7.38
2022-08-21T04:50:31.498Z,5.97
2022-08-21T04:52:59.189Z,6.63
2022-08-21T04:55:28.866Z,6.50
2022-08-21T04:57:57.520Z,7.28
2022-08-21T05:00:25.608Z,7.32
2022-08-21T05:02:55.534Z,6.60
2022-08-21T05:05:22.877Z,6.85
2022-08-21T05:07:51.100Z,7.00
2022-08-21T05:10:18.357Z,6.65
2022-08-21T05:12:46.214Z,6.53
2022-08-21T05:15:14.017Z,7.30
2022-08-21T05:17:42.209Z,7.18
2022-08-21T05:20:10.416Z,6.90
2022-08-21T05:22:37.873Z,7.10
2022-08-21T05:25:10.225Z,7.05
2022-08-21T05:27:38.108Z,7.10
2022-08-21T05:30:08.445Z,6.63
2022-08-21T05:32:36.137Z,6.47
2022-08-21T05:35:04.349Z,7.00
2022-08-21T05:37:31.541Z,7.28
2022-08-21T05:40:05.093Z,6.93
2022-08-21T05:42:54.450Z,5.72
2022-08-21T05:45:41.956Z,7.38
2022-08-21T05:48:16.609Z,6.25
2022-08-21T05:50:44.071Z,7.00
2022-08-21T05:53:11.374Z,6.68
2022-08-21T05:55:44.822Z,5.70
2022-08-21T05:58:13.887Z,5.82
2022-08-21T06:00:41.168Z,7.05
2022-08-21T06:03:12.372Z,7.18
2022-08-21T06:05:39.870Z,7.28
2022-08-21T06:08:07.222Z,6.07
2022-08-21T06:10:34.497Z,6.28
2022-08-21T06:13:01.690Z,6.00
2022-08-21T06:15:29.137Z,6.70
2022-08-21T06:17:56.484Z,6.95
2022-08-21T06:20:24.185Z,7.35
2022-08-21T06:22:51.470Z,7.50
2022-08-21T06:25:19.474Z,7.30
2022-08-21T06:27:47.020Z,7.25
2022-08-21T06:30:14.451Z,7.05
2022-08-21T06:32:41.694Z,6.07
2022-08-21T06:35:09.102Z,5.95
2022-08-21T06:37:36.462Z,6.90
2022-08-21T06:40:05.122Z,6.80
2022-08-21T06:42:32.601Z,5.93
2022-08-21T06:45:00.042Z,6.40
2022-08-21T06:47:27.211Z,6.43
2022-08-21T06:49:54.413Z,6.60
2022-08-21T06:52:21.781Z,7.45
2022-08-21T06:54:49.007Z,6.78
2022-08-21T06:57:16.190Z,6.43
2022-08-21T06:59:43.417Z,6.20
2022-08-21T07:02:10.624Z,6.53
2022-08-21T07:04:37.824Z,7.55
2022-08-21T07:07:05.237Z,7.82
2022-08-21T07:09:32.436Z,6.93
2022-08-21T07:11:59.683Z,6.80
2022-08-21T07:14:26.925Z,6.75
2022-08-21T07:16:54.221Z,6.53
2022-08-21T07:19:21.743Z,6.20
2022-08-21T07:21:49.057Z,7.28
2022-08-21T07:24:16.593Z,8.05
2022-08-21T07:26:43.806Z,6.60
2022-08-21T07:29:11.054Z,6.53
2022-08-21T07:31:38.457Z,6.57
2022-08-21T07:34:05.678Z,6.70
2022-08-21T07:36:33.437Z,8.82
2022-08-21T07:39:02.382Z,6.65
2022-08-21T07:41:30.530Z,7.15
2022-08-21T07:44:01.090Z,7.75
2022-08-21T07:46:28.954Z,7.63
2022-08-21T07:48:56.139Z,7.32
2022-08-21T07:51:25.709Z,6.85
2022-08-21T07:53:53.581Z,7.65
2022-08-21T07:56:21.350Z,7.07
2022-08-21T07:58:48.763Z,7.03
2022-08-21T08:01:16.283Z,6.53
2022-08-21T08:03:43.769Z,7.45
2022-08-21T08:06:13.426Z,6.88
2022-08-21T08:08:41.878Z,6.38
2022-08-21T08:11:11.885Z,7.15
2022-08-21T08:16:06.465Z,6.40
2022-08-21T08:18:33.644Z,6.70
2022-08-21T08:21:00.942Z,7.20
2022-08-21T08:23:28.593Z,6.60
2022-08-21T08:25:55.771Z,5.97
2022-08-21T08:28:23.150Z,7.13
2022-08-21T08:30:50.755Z,7.03
2022-08-21T08:33:18.573Z,7.03
2022-08-21T08:35:47.590Z,6.57
2022-08-21T08:38:19.704Z,7.00
2022-08-21T08:40:48.614Z,6.68
2022-08-21T08:43:15.942Z,7.75
2022-08-21T08:45:46.605Z,7.07
2022-08-21T08:48:16.497Z,6.18
2022-08-21T08:53:17.010Z,6.55
2022-08-21T08:55:45.073Z,6.47
2022-08-21T08:58:18.460Z,6.20
2022-08-21T09:00:48.991Z,6.38
2022-08-21T09:03:18.092Z,6.40
2022-08-21T09:05:50.027Z,6.88
2022-08-21T09:08:35.767Z,6.40
2022-08-21T09:11:10.445Z,6.40
2022-08-21T09:13:50.049Z,7.18
2022-08-21T09:16:33.795Z,7.15
2022-08-21T09:19:25.201Z,5.57
2022-08-21T09:21:52.478Z,6.07
2022-08-21T09:24:22.450Z,6.07
2022-08-21T09:27:02.386Z,5.68
2022-08-21T09:29:31.890Z,6.20
2022-08-21T09:31:59.077Z,5.37
2022-08-21T09:34:30.455Z,5.68
2022-08-21T09:36:57.935Z,5.72
2022-08-21T09:39:25.057Z,5.13
2022-08-21T09:42:00.069Z,5.35
2022-08-21T09:44:28.762Z,6.20
2022-08-21T09:46:56.226Z,5.32
2022-08-21T09:49:30.725Z,5.30
2022-08-21T09:51:58.198Z,5.80
2022-08-21T09:54:28.282Z,4.90
2022-08-21T09:57:18.428Z,4.60
2022-08-21T09:59:46.490Z,4.78
2022-08-21T10:02:29.095Z,4.88
2022-08-21T10:05:05.635Z,5.70
2022-08-21T10:07:33.847Z,4.55
2022-08-21T10:10:00.991Z,4.57
2022-08-21T10:12:34.868Z,5.43
2022-08-21T10:15:17.156Z,4.57
2022-08-21T10:18:04.729Z,5.32
2022-08-21T10:20:49.987Z,4.63
2022-08-21T10:23:23.279Z,4.90
2022-08-21T10:26:14.528Z,4.55
2022-08-21T10:28:41.920Z,4.88
2022-08-21T10:31:11.969Z,5.03
2022-08-21T10:33:42.475Z,4.85
2022-08-21T10:39:02.735Z,4.65
2022-08-21T10:41:38.842Z,4.50
2022-08-21T10:44:09.047Z,4.20
2022-08-21T10:46:44.195Z,4.85
2022-08-21T10:49:29.946Z,4.97
2022-08-21T10:51:57.197Z,4.38
2022-08-21T10:54:43.183Z,4.40
2022-08-21T10:57:17.565Z,5.15
2022-08-21T11:00:09.790Z,4.97
2022-08-21T11:02:46.236Z,4.65
2022-08-21T11:05:13.561Z,4.38
2022-08-21T11:07:49.534Z,4.68
2022-08-21T11:10:28.180Z,4.80
2022-08-21T11:12:57.714Z,4.78
2022-08-21T11:15:29.937Z,5.23
2022-08-21T11:18:05.754Z,5.38
2022-08-21T11:20:45.804Z,4.53
2022-08-21T11:23:26.901Z,5.13
2022-08-21T11:25:57.070Z,4.38
2022-08-21T11:28:39.359Z,4.53
2022-08-21T11:31:25.326Z,4.90
2022-08-21T11:34:03.250Z,4.75
2022-08-21T11:36:35.390Z,4.47
2022-08-21T11:39:16.337Z,4.88
2022-08-21T11:41:48.650Z,4.97
2022-08-21T11:44:15.819Z,5.18
2022-08-21T11:47:01.913Z,4.50
2022-08-21T11:49:48.723Z,4.10
2022-08-21T11:52:25.062Z,5.20
2022-08-21T11:55:01.891Z,4.45
2022-08-21T11:57:47.015Z,4.20
2022-08-21T12:00:32.565Z,4.40
2022-08-21T12:03:29.140Z,4.90
2022-08-21T12:06:03.762Z,4.97
2022-08-21T12:08:39.137Z,4.78
2022-08-21T12:11:28.118Z,4.53
2022-08-21T12:13:58.433Z,4.40
2022-08-21T12:16:39.381Z,3.95
2022-08-21T12:19:06.585Z,5.95
2022-08-21T12:21:33.967Z,5.40
2022-08-21T12:24:18.908Z,5.05
2022-08-21T12:26:56.175Z,4.63
2022-08-21T12:29:31.147Z,6.88
2022-08-21T12:32:00.101Z,4.70
2022-08-21T12:34:48.829Z,5.32
2022-08-21T12:37:34.535Z,4.80
2022-08-21T12:40:04.094Z,4.63
2022-08-21T12:42:43.354Z,5.83
2022-08-21T12:45:20.260Z,4.68
2022-08-21T12:47:50.593Z,5.55
2022-08-21T12:50:34.934Z,4.60
2022-08-21T12:53:23.866Z,5.03
2022-08-21T12:55:51.115Z,4.20
2022-08-21T12:58:22.459Z,4.65
2022-08-21T13:00:54.198Z,4.38
2022-08-21T13:03:21.609Z,4.93
2022-08-21T13:05:49.315Z,4.90
2022-08-21T13:08:16.998Z,5.57
2022-08-21T13:10:45.257Z,5.15
2022-08-21T13:13:16.289Z,4.68
2022-08-21T13:18:24.611Z,4.40
2022-08-21T13:20:52.133Z,4.85
2022-08-21T13:23:26.608Z,4.85
2022-08-21T13:25:54.124Z,4.78
2022-08-21T13:28:21.466Z,5.05
2022-08-21T13:30:53.151Z,4.88
2022-08-21T13:33:22.136Z,4.57
2022-08-21T13:35:51.598Z,4.63
2022-08-21T13:38:19.225Z,3.90
2022-08-21T13:40:49.398Z,4.80
2022-08-21T13:43:21.299Z,4.63
2022-08-21T13:45:52.795Z,4.20
2022-08-21T13:48:21.078Z,4.55
2022-08-21T13:50:48.338Z,4.65
2022-08-21T13:53:34.623Z,5.07
2022-08-21T13:56:02.440Z,4.20
2022-08-21T13:58:31.314Z,4.47
2022-08-21T14:01:00.470Z,4.10
2022-08-21T14:03:30.275Z,5.07
2022-08-21T14:05:57.520Z,5.55
2022-08-21T14:08:30.187Z,3.70
2022-08-21T14:10:58.304Z,5.15
2022-08-21T14:13:38.108Z,5.03
2022-08-21T14:16:11.680Z,5.38
2022-08-21T14:18:59.335Z,4.50
2022-08-21T14:21:49.115Z,5.20
2022-08-21T14:24:28.265Z,4.88
2022-08-21T14:26:59.663Z,4.97
2022-08-21T14:29:29.623Z,5.03
2022-08-21T14:32:01.326Z,4.63
2022-08-21T14:34:35.906Z,4.45
2022-08-21T14:37:03.557Z,4.63
2022-08-21T14:39:30.880Z,5.47
2022-08-21T14:41:59.655Z,5.50
2022-08-21T14:44:26.892Z,5.38
2022-08-21T14:46:55.527Z,5.10
2022-08-21T14:49:24.162Z,5.32
2022-08-21T14:51:57.702Z,4.80
2022-08-21T14:54:28.171Z,5.88
2022-08-21T14:57:00.918Z,5.68
2022-08-21T14:59:28.219Z,6.45
2022-08-21T15:01:57.157Z,4.38
2022-08-21T15:04:24.434Z,5.30
2022-08-21T15:06:51.891Z,4.32
2022-08-21T15:09:19.077Z,4.97
2022-08-21T15:11:46.242Z,5.20
2022-08-21T15:14:17.434Z,5.18
2022-08-21T15:16:44.627Z,4.47
2022-08-21T15:19:11.805Z,4.90
2022-08-21T15:21:39.182Z,4.88
2022-08-21T15:24:06.406Z,4.85
2022-08-21T15:26:33.651Z,4.78
2022-08-21T15:29:01.540Z,4.40
2022-08-21T15:31:28.940Z,5.20
2022-08-21T15:33:56.275Z,4.75
2022-08-21T15:36:23.799Z,5.45
2022-08-21T15:38:51.033Z,4.82
2022-08-21T15:41:19.203Z,4.65
2022-08-21T15:43:48.194Z,4.75
2022-08-21T15:46:16.366Z,4.93
2022-08-21T15:48:43.630Z,5.35
2022-08-21T15:51:12.467Z,5.25
2022-08-21T15:53:41.115Z,5.18
2022-08-21T15:56:13.982Z,6.10
2022-08-21T15:58:41.218Z,5.10
2022-08-21T16:01:08.646Z,6.43
2022-08-21T16:03:36.034Z,4.93
2022-08-21T16:06:03.229Z,11.57
2022-08-21T16:08:30.464Z,6.18
2022-08-21T16:10:58.125Z,6.15
2022-08-21T16:13:27.366Z,5.28
2022-08-21T16:15:54.941Z,4.82
2022-08-21T16:18:23.228Z,4.93
2022-08-21T16:20:50.735Z,6.20
2022-08-21T16:23:18.024Z,5.15
2022-08-21T16:25:46.015Z,5.00
2022-08-21T16:28:16.255Z,5.07
2022-08-21T16:30:44.881Z,5.22
2022-08-21T16:33:16.913Z,4.90
2022-08-21T16:35:44.089Z,5.18
2022-08-21T16:38:11.325Z,5.47
2022-08-21T16:40:38.561Z,5.25
2022-08-21T16:43:05.726Z,5.40
2022-08-21T16:45:33.444Z,5.65
2022-08-21T16:48:01.038Z,5.00
2022-08-21T16:50:28.638Z,5.07
2022-08-21T16:52:55.903Z,5.82
2022-08-21T16:55:23.182Z,5.53
2022-08-21T16:57:50.431Z,5.32
2022-08-21T17:00:17.882Z,4.95
2022-08-21T17:02:47.532Z,5.43
2022-08-21T17:05:15.281Z,5.30
2022-08-21T17:07:43.199Z,6.18
2022-08-21T17:10:12.478Z,6.13
2022-08-21T17:12:39.954Z,6.13
2022-08-21T17:15:09.625Z,5.22
2022-08-21T17:17:37.042Z,4.90
2022-08-21T17:20:04.694Z,5.88
2022-08-21T17:22:32.121Z,5.30
2022-08-21T17:24:59.518Z,5.05
2022-08-21T17:27:28.489Z,6.47
2022-08-21T17:29:56.400Z,5.38
2022-08-21T17:32:23.825Z,5.82
2022-08-21T17:34:51.066Z,5.38
2022-08-21T17:37:18.268Z,5.28
2022-08-21T17:39:45.700Z,5.07
2022-08-21T17:42:14.190Z,5.10
2022-08-21T17:44:42.753Z,6.22
2022-08-21T17:47:10.174Z,5.40
2022-08-21T17:49:37.370Z,5.32
2022-08-21T17:52:04.790Z,6.00
2022-08-21T17:54:32.274Z,5.80
2022-08-21T17:57:00.029Z,5.18
2022-08-21T17:59:27.806Z,5.90
2022-08-21T18:02:01.388Z,4.93
2022-08-21T18:04:29.465Z,5.72
2022-08-21T18:06:56.834Z,5.38
2022-08-21T18:09:28.201Z,5.07
2022-08-21T18:11:57.358Z,5.50
2022-08-21T18:14:28.372Z,6.05
2022-08-21T18:16:56.285Z,5.82
2022-08-21T18:19:26.078Z,5.88
2022-08-21T18:21:54.130Z,6.07
2022-08-21T18:24:22.179Z,4.90
2022-08-21T18:26:49.860Z,6.15
2022-08-21T18:29:19.235Z,5.32
2022-08-21T18:31:47.242Z,5.35
2022-08-21T18:34:21.506Z,6.15
2022-08-21T18:36:49.079Z,5.82
2022-08-21T18:39:35.329Z,5.85
2022-08-21T18:42:04.663Z,6.68
2022-08-21T18:44:32.297Z,5.38
2022-08-21T18:47:03.000Z,5.85
2022-08-21T18:49:31.730Z,5.90
2022-08-21T18:51:59.150Z,5.97
2022-08-21T18:54:26.500Z,6.20
2022-08-21T18:56:55.049Z,6.10
2022-08-21T18:59:22.678Z,5.50
2022-08-21T19:01:50.408Z,5.65
2022-08-21T19:07:04.993Z,6.55
2022-08-21T19:09:32.375Z,5.53
2022-08-21T19:11:59.922Z,5.57
2022-08-21T19:14:28.269Z,6.32
2022-08-21T19:16:55.757Z,6.28
2022-08-21T19:19:23.128Z,6.22
2022-08-21T19:21:50.504Z,5.78
2022-08-21T19:24:18.314Z,7.00
2022-08-21T19:26:50.615Z,6.75
2022-08-21T19:29:34.715Z,6.10
2022-08-21T19:32:04.121Z,6.80
2022-08-21T19:34:31.446Z,7.55
2022-08-21T19:36:59.352Z,7.07
2022-08-21T19:39:27.468Z,7.15
2022-08-21T19:41:58.149Z,6.88
2022-08-21T19:44:28.248Z,5.88
2022-08-21T19:46:58.043Z,6.28
2022-08-21T19:49:26.828Z,6.53
2022-08-21T19:51:54.157Z,6.28
2022-08-21T19:54:23.666Z,6.22
2022-08-21T19:56:50.874Z,6.70
2022-08-21T19:59:24.757Z,6.95
2022-08-21T20:01:52.506Z,6.88
2022-08-21T20:04:19.746Z,6.78
2022-08-21T20:06:47.360Z,7.10
2022-08-21T20:09:16.412Z,6.88
2022-08-21T20:11:45.739Z,6.43
2022-08-21T20:14:14.061Z,7.38
2022-08-21T20:16:42.433Z,6.55
2022-08-21T20:19:09.835Z,7.25
2022-08-21T20:21:43.577Z,6.57
2022-08-21T20:24:12.050Z,7.50
2022-08-21T20:26:43.043Z,6.68
2022-08-21T20:29:16.620Z,8.13
2022-08-21T20:31:51.249Z,7.22
2022-08-21T20:34:18.609Z,6.75
2022-08-21T20:36:47.453Z,6.72
2022-08-21T20:39:14.917Z,7.07
2022-08-21T20:41:44.736Z,7.07
2022-08-21T20:46:42.460Z,7.43
2022-08-21T20:49:11.658Z,7.25
2022-08-21T20:51:40.864Z,7.75
2022-08-21T20:54:15.539Z,7.53
2022-08-21T20:57:01.264Z,7.00
2022-08-21T20:59:34.586Z,7.72
2022-08-21T21:02:22.059Z,7.40
2022-08-21T21:04:55.566Z,7.03
2022-08-21T21:07:28.455Z,6.97
2022-08-21T21:09:57.010Z,7.55
2022-08-21T21:12:31.707Z,8.65
2022-08-21T21:15:02.034Z,6.72
2022-08-21T21:17:38.354Z,7.43
2022-08-21T21:20:13.435Z,7.68
2022-08-21T21:22:53.756Z,7.25
2022-08-21T21:25:21.098Z,7.23
2022-08-21T21:27:56.213Z,7.07
2022-08-21T21:30:28.539Z,6.80
2022-08-21T21:32:55.847Z,6.38
2022-08-21T21:35:32.433Z,6.57
2022-08-21T21:38:09.981Z,6.65
2022-08-21T21:40:52.129Z,6.95
2022-08-21T21:43:25.422Z,7.07
2022-08-21T21:46:04.538Z,7.18
2022-08-21T21:48:50.318Z,7.60
2022-08-21T21:51:18.353Z,6.65
2022-08-21T21:53:54.753Z,6.93
2022-08-21T21:56:27.505Z,7.53
2022-08-21T21:59:08.284Z,7.40
2022-08-21T22:01:40.155Z,6.45
2022-08-21T22:04:10.499Z,7.07
2022-08-21T22:06:37.722Z,7.13
2022-08-21T22:09:19.110Z,7.80
2022-08-21T22:11:55.739Z,6.93
2022-08-21T22:14:28.247Z,6.57
2022-08-21T22:16:55.786Z,7.47
2022-08-21T22:19:29.346Z,6.53
2022-08-21T22:21:59.646Z,6.30
2022-08-21T22:24:33.261Z,6.22
2022-08-21T22:27:03.394Z,7.10
2022-08-21T22:29:43.374Z,7.13
2022-08-21T22:32:12.395Z,7.20
2022-08-21T22:34:39.828Z,6.72
2022-08-21T22:37:12.190Z,6.82
2022-08-21T22:39:44.105Z,6.82
2022-08-21T22:42:16.600Z,6.43
2022-08-21T22:44:51.773Z,6.65
2022-08-21T22:47:24.429Z,6.70
2022-08-21T22:49:54.075Z,7.20
2022-08-21T22:52:26.752Z,6.53
2022-08-21T22:54:57.552Z,5.97
2022-08-21T22:57:27.479Z,6.68
2022-08-21T22:59:54.614Z,7.18
2022-08-21T23:02:44.505Z,7.07
2022-08-21T23:05:22.730Z,6.63
2022-08-21T23:07:50.522Z,5.97
2022-08-21T23:10:26.545Z,6.85
2022-08-21T23:12:59.887Z,7.07
2022-08-21T23:15:29.014Z,7.88
2022-08-21T23:18:15.121Z,6.72
2022-08-21T23:20:47.338Z,7.00
2022-08-21T23:25:53.659Z,6.30
2022-08-21T23:28:21.074Z,7.03
2022-08-21T23:31:10.155Z,7.03
2022-08-21T23:33:43.037Z,7.68
2022-08-21T23:36:29.147Z,7.13
2022-08-21T23:39:00.417Z,7.03
2022-08-21T23:41:51.390Z,7.60
2022-08-21T23:47:06.294Z,6.00
2022-08-21T23:49:44.106Z,6.55
2022-08-21T23:52:20.487Z,6.72
2022-08-21T23:54:53.563Z,6.32
2022-08-21T23:57:31.947Z,6.97
